createdAt,value
2018-04-06T00:01:40.990Z,6.60
2018-04-06T00:04:08.974Z,6.50
2018-04-06T00:06:37.310Z,6.50
2018-04-06T00:09:04.626Z,6.60
2018-04-06T00:11:31.518Z,6.60
2018-04-06T00:13:57.802Z,6.60
2018-04-06T00:16:24.793Z,6.60
2018-04-06T00:18:51.059Z,6.60
2018-04-06T00:21:17.309Z,6.60
2018-04-06T00:23:44.418Z,6.70
2018-04-06T00:26:10.690Z,6.70
2018-04-06T00:28:37.159Z,6.70
2018-04-06T00:31:05.254Z,6.70
2018-04-06T00:33:32.178Z,6.70
2018-04-06T00:35:59.169Z,6.60
2018-04-06T00:38:25.460Z,6.50
2018-04-06T00:40:52.722Z,6.60
2018-04-06T00:43:19.706Z,6.60
2018-04-06T00:45:46.494Z,6.60
2018-04-06T00:48:12.754Z,6.70
2018-04-06T00:50:40.474Z,6.60
2018-04-06T00:53:19.645Z,6.60
2018-04-06T00:55:46.649Z,6.60
2018-04-06T00:58:13.450Z,6.60
2018-04-06T01:00:40.481Z,6.60
2018-04-06T01:03:06.753Z,6.60
2018-04-06T01:05:33.583Z,6.60
2018-04-06T01:08:01.335Z,6.60
2018-04-06T01:10:28.094Z,6.60
2018-04-06T01:12:55.811Z,6.60
2018-04-06T01:15:23.586Z,6.50
2018-04-06T01:17:49.846Z,6.60
2018-04-06T01:20:16.106Z,6.60
2018-04-06T01:22:43.128Z,6.60
2018-04-06T01:25:09.377Z,6.60
2018-04-06T01:27:35.710Z,6.60
2018-04-06T01:30:02.602Z,6.60
2018-04-06T01:32:30.394Z,6.60
2018-04-06T01:34:57.489Z,6.50
2018-04-06T01:37:24.492Z,6.40
2018-04-06T01:39:50.743Z,6.30
2018-04-06T01:42:17.245Z,6.30
2018-04-06T01:44:43.902Z,6.20
2018-04-06T01:47:10.355Z,6.10
2018-04-06T01:49:37.118Z,6.10
2018-04-06T01:52:03.370Z,6.00
2018-04-06T01:54:30.107Z,6.10
2018-04-06T01:56:56.382Z,6.00
2018-04-06T01:59:22.638Z,6.00
2018-04-06T02:01:48.906Z,5.90
2018-04-06T02:04:15.896Z,5.90
2018-04-06T02:06:43.662Z,5.90
2018-04-06T02:09:11.646Z,5.80
2018-04-06T02:11:37.895Z,5.80
2018-04-06T02:14:04.194Z,5.80
2018-04-06T02:16:31.830Z,5.60
2018-04-06T02:18:58.332Z,5.60
2018-04-06T02:21:24.594Z,5.60
2018-04-06T02:23:51.394Z,5.60
2018-04-06T02:26:18.712Z,5.40
2018-04-06T02:28:45.626Z,5.40
2018-04-06T02:31:12.654Z,5.40
2018-04-06T02:33:40.241Z,5.20
2018-04-06T02:36:06.496Z,5.20
2018-04-06T02:38:32.903Z,5.10
2018-04-06T02:41:00.655Z,5.00
2018-04-06T02:43:27.039Z,4.90
2018-04-06T02:45:54.046Z,4.80
2018-04-06T02:48:21.042Z,4.60
2018-04-06T02:50:47.295Z,4.60
2018-04-06T02:53:14.080Z,4.50
2018-04-06T02:55:41.087Z,4.50
2018-04-06T02:58:07.345Z,4.50
2018-04-06T03:00:34.741Z,4.40
2018-04-06T03:03:00.996Z,4.40
2018-04-06T03:05:27.679Z,4.30
2018-04-06T03:07:54.303Z,4.30
2018-04-06T03:10:21.598Z,4.20
2018-04-06T03:12:48.558Z,4.20
2018-04-06T03:15:15.551Z,4.20
2018-04-06T03:17:41.809Z,4.10
2018-04-06T03:20:08.590Z,4.20
2018-04-06T03:22:35.642Z,4.10
2018-04-06T03:25:02.761Z,4.10
2018-04-06T03:27:29.352Z,4.10
2018-04-06T03:29:56.902Z,3.90
2018-04-06T03:32:23.890Z,3.90
2018-04-06T03:34:51.320Z,3.80
2018-04-06T03:37:18.310Z,3.80
2018-04-06T03:39:45.138Z,3.70
2018-04-06T03:42:11.402Z,3.70
2018-04-06T03:44:38.074Z,3.70
2018-04-06T03:47:05.799Z,3.70
2018-04-06T03:49:32.063Z,3.70
2018-04-06T03:51:58.638Z,3.60
2018-04-06T03:54:26.078Z,3.50
2018-04-06T03:56:52.330Z,3.50
2018-04-06T03:59:19.366Z,3.50
2018-04-06T04:01:47.054Z,3.50
2018-04-06T04:04:14.727Z,3.40
2018-04-06T04:06:42.998Z,3.30
2018-04-06T04:09:11.490Z,3.40
2018-04-06T04:11:38.497Z,3.30
2018-04-06T04:14:04.754Z,3.30
2018-04-06T04:16:31.430Z,3.30
2018-04-06T04:18:57.698Z,3.20
2018-04-06T04:21:23.950Z,3.20
2018-04-06T04:23:50.234Z,3.20
2018-04-06T04:26:16.506Z,3.20
2018-04-06T04:28:43.873Z,3.20
2018-04-06T04:31:10.771Z,3.10
2018-04-06T04:33:38.542Z,3.10
2018-04-06T04:36:06.121Z,3.10
2018-04-06T04:38:32.399Z,3.00
2018-04-06T04:40:59.530Z,3.10
2018-04-06T04:43:26.349Z,3.00
2018-04-06T04:45:53.368Z,3.10
2018-04-06T04:48:21.959Z,3.00
2018-04-06T04:50:49.051Z,3.00
2018-04-06T04:53:15.842Z,3.10
2018-04-06T04:55:42.066Z,3.00
2018-04-06T04:58:09.047Z,3.00
2018-04-06T05:00:36.038Z,3.00
2018-04-06T05:03:02.334Z,3.00
2018-04-06T05:05:28.870Z,3.00
2018-04-06T05:07:56.350Z,3.10
2018-04-06T05:10:23.850Z,3.20
2018-04-06T05:12:50.159Z,3.10
2018-04-06T05:15:17.682Z,3.20
2018-04-06T05:17:43.940Z,3.20
2018-04-06T05:20:11.034Z,3.20
2018-04-06T05:22:37.311Z,3.20
2018-04-06T05:25:03.582Z,3.20
2018-04-06T05:27:30.673Z,3.40
2018-04-06T05:29:57.479Z,3.40
2018-04-06T05:32:24.493Z,3.60
2018-04-06T05:34:51.134Z,3.60
2018-04-06T05:37:17.390Z,3.70
2018-04-06T05:39:44.342Z,3.80
2018-04-06T05:42:10.606Z,3.80
2018-04-06T05:44:36.875Z,3.90
2018-04-06T05:47:03.806Z,3.90
2018-04-06T05:49:30.086Z,4.00
2018-04-06T05:51:56.346Z,4.10
2018-04-06T05:54:23.911Z,4.30
2018-04-06T05:56:52.502Z,4.30
2018-04-06T05:59:19.487Z,4.30
2018-04-06T06:01:45.742Z,4.40
2018-04-06T06:04:12.430Z,4.40
2018-04-06T06:06:40.329Z,4.50
2018-04-06T06:09:07.362Z,4.50
2018-04-06T06:11:34.361Z,4.70
2018-04-06T06:14:00.618Z,4.70
2018-04-06T06:16:26.888Z,4.80
2018-04-06T06:18:53.231Z,4.90
2018-04-06T06:21:19.602Z,5.00
2018-04-06T06:23:45.887Z,5.00
2018-04-06T06:26:12.886Z,5.30
2018-04-06T06:28:39.153Z,5.30
2018-04-06T06:31:06.334Z,5.40
2018-04-06T06:33:33.698Z,5.50
2018-04-06T06:35:59.953Z,5.50
2018-04-06T06:38:26.974Z,5.50
2018-04-06T06:40:54.031Z,5.70
2018-04-06T06:43:21.490Z,5.80
2018-04-06T06:45:48.498Z,5.90
2018-04-06T06:48:14.792Z,5.90
2018-04-06T06:50:41.318Z,6.00
2018-04-06T06:53:08.985Z,6.20
2018-04-06T06:55:36.072Z,6.30
2018-04-06T06:58:02.330Z,6.30
2018-04-06T07:00:28.602Z,6.40
2018-04-06T07:02:56.158Z,6.60
2018-04-06T07:05:22.885Z,6.60
2018-04-06T07:07:49.766Z,6.60
2018-04-06T07:10:17.550Z,6.90
2018-04-06T07:12:43.813Z,6.80
2018-04-06T07:15:10.053Z,6.90
2018-04-06T07:17:36.329Z,7.00
2018-04-06T07:20:03.327Z,7.20
2018-04-06T07:22:29.700Z,7.20
2018-04-06T07:24:56.872Z,7.20
2018-04-06T07:27:23.182Z,7.40
2018-04-06T07:29:50.110Z,7.40
2018-04-06T07:32:16.395Z,7.50
2018-04-06T07:34:43.153Z,7.60
2018-04-06T07:37:10.165Z,7.70
2018-04-06T07:39:36.448Z,7.70
2018-04-06T07:42:03.698Z,7.90
2018-04-06T07:44:30.697Z,8.00
2018-04-06T07:46:57.127Z,8.00
2018-04-06T07:49:23.633Z,8.10
2018-04-06T07:51:50.636Z,8.30
2018-04-06T07:54:17.448Z,8.20
2018-04-06T07:56:44.486Z,8.30
2018-04-06T07:59:11.464Z,8.40
2018-04-06T08:01:37.748Z,8.40
2018-04-06T08:04:04.806Z,8.50
2018-04-06T08:06:32.304Z,8.70
2018-04-06T08:08:58.621Z,8.60
2018-04-06T08:11:25.405Z,8.80
2018-04-06T08:13:51.668Z,8.90
2018-04-06T08:16:17.928Z,9.00
2018-04-06T08:18:45.195Z,9.20
2018-04-06T08:21:12.190Z,9.30
2018-04-06T08:23:38.545Z,9.20
2018-04-06T08:26:05.687Z,9.40
2018-04-06T08:28:31.965Z,9.50
2018-04-06T08:30:59.427Z,9.60
2018-04-06T08:33:26.997Z,9.70
2018-04-06T08:35:54.010Z,9.70
2018-04-06T08:38:20.278Z,9.60
2018-04-06T08:40:47.534Z,9.90
2018-04-06T08:43:14.552Z,9.90
2018-04-06T08:45:40.905Z,9.90
2018-04-06T08:48:07.478Z,10.00
2018-04-06T08:50:33.750Z,10.00
2018-04-06T08:53:01.574Z,10.20
2018-04-06T08:55:28.574Z,10.50
2018-04-06T08:57:54.822Z,10.50
2018-04-06T09:00:21.409Z,10.60
2018-04-06T09:02:48.398Z,10.80
2018-04-06T09:05:16.969Z,10.80
2018-04-06T09:07:43.765Z,11.00
2018-04-06T09:10:10.534Z,11.00
2018-04-06T09:12:37.581Z,11.20
2018-04-06T09:15:04.442Z,11.20
2018-04-06T09:17:31.426Z,11.40
2018-04-06T09:19:57.730Z,11.40
2018-04-06T09:22:24.753Z,11.60
2018-04-06T09:24:51.722Z,11.60
2018-04-06T09:27:18.718Z,11.70
2018-04-06T09:29:45.534Z,11.70
2018-04-06T09:32:12.526Z,11.80
2018-04-06T09:34:39.950Z,11.80
2018-04-06T09:37:06.218Z,11.90
2018-04-06T09:39:32.494Z,11.90
2018-04-06T09:41:59.059Z,11.90
2018-04-06T09:44:25.309Z,12.00
2018-04-06T09:46:51.666Z,12.00
2018-04-06T09:49:17.950Z,12.00
2018-04-06T09:51:44.950Z,12.30
2018-04-06T09:54:12.289Z,12.30
2018-04-06T09:56:38.607Z,12.40
2018-04-06T09:59:05.598Z,12.60
2018-04-06T10:01:34.766Z,12.50
2018-04-06T10:04:02.223Z,12.70
2018-04-06T10:06:29.779Z,12.80
2018-04-06T10:08:57.158Z,12.80
2018-04-06T10:11:24.186Z,12.80
2018-04-06T10:13:51.185Z,12.90
2018-04-06T10:16:17.457Z,12.90
2018-04-06T10:18:44.554Z,13.10
2018-04-06T10:21:11.198Z,13.10
2018-04-06T10:23:37.446Z,13.20
2018-04-06T10:26:03.734Z,13.30
2018-04-06T10:28:30.393Z,13.40
2018-04-06T10:30:57.943Z,13.50
2018-04-06T10:33:24.811Z,13.40
2018-04-06T10:35:51.830Z,13.60
2018-04-06T10:38:18.101Z,13.60
2018-04-06T10:40:45.159Z,13.80
2018-04-06T10:43:11.418Z,13.80
2018-04-06T10:45:38.590Z,13.90
2018-04-06T10:48:04.878Z,13.90
2018-04-06T10:50:31.873Z,14.10
2018-04-06T10:52:58.675Z,14.10
2018-04-06T10:55:25.674Z,14.30
2018-04-06T10:57:52.046Z,14.30
2018-04-06T11:00:19.009Z,14.50
2018-04-06T11:02:46.057Z,14.50
2018-04-06T11:05:13.537Z,14.50
2018-04-06T11:07:40.313Z,14.50
2018-04-06T11:10:07.650Z,14.60
2018-04-06T11:12:33.926Z,14.70
2018-04-06T11:15:00.187Z,14.80
2018-04-06T11:17:26.470Z,14.90
2018-04-06T11:19:53.384Z,14.80
2018-04-06T11:22:20.407Z,14.90
2018-04-06T11:24:47.198Z,14.90
2018-04-06T11:27:13.454Z,14.80
2018-04-06T11:29:39.703Z,14.80
2018-04-06T11:32:06.023Z,14.80
2018-04-06T11:34:32.998Z,14.80
2018-04-06T11:36:59.257Z,14.90
2018-04-06T11:39:25.524Z,14.90
2018-04-06T11:41:51.808Z,15.00
2018-04-06T11:44:18.062Z,15.00
2018-04-06T11:46:44.459Z,15.10
2018-04-06T11:49:10.737Z,15.10
2018-04-06T11:51:38.008Z,15.10
2018-04-06T11:54:05.622Z,15.20
2018-04-06T11:56:31.849Z,15.20
2018-04-06T11:58:58.099Z,15.30
2018-04-06T12:01:24.804Z,15.40
2018-04-06T12:03:52.166Z,15.40
2018-04-06T12:06:18.419Z,15.40
2018-04-06T12:08:45.998Z,15.50
2018-04-06T12:11:12.805Z,15.60
2018-04-06T12:13:39.792Z,15.80
2018-04-06T12:16:06.694Z,15.80
2018-04-06T12:18:34.270Z,16.20
2018-04-06T12:21:01.264Z,16.30
2018-04-06T12:23:28.057Z,16.30
2018-04-06T12:25:55.062Z,16.40
2018-04-06T12:28:21.363Z,16.40
2018-04-06T12:30:47.741Z,16.50
2018-04-06T12:33:14.942Z,16.70
2018-04-06T12:35:41.930Z,16.90
2018-04-06T12:38:08.225Z,16.90
2018-04-06T12:40:35.491Z,16.90
2018-04-06T12:43:02.507Z,17.10
2018-04-06T12:45:28.862Z,17.10
2018-04-06T12:47:55.877Z,17.20
2018-04-06T12:50:23.503Z,17.20
2018-04-06T12:52:50.369Z,17.20
2018-04-06T12:55:16.629Z,17.30
2018-04-06T12:57:42.885Z,17.40
2018-04-06T13:00:09.650Z,17.50
2018-04-06T13:02:36.713Z,17.50
2018-04-06T13:05:04.138Z,17.50
2018-04-06T13:07:31.459Z,17.50
2018-04-06T13:09:58.189Z,17.50
2018-04-06T13:12:24.459Z,17.60
2018-04-06T13:14:51.393Z,17.70
2018-04-06T13:17:17.965Z,17.80
2018-04-06T13:19:45.086Z,17.70
2018-04-06T13:22:11.875Z,17.80
2018-04-06T13:24:38.234Z,17.80
2018-04-06T13:27:05.298Z,17.90
2018-04-06T13:29:32.386Z,17.90
2018-04-06T13:31:58.807Z,17.90
2018-04-06T13:34:25.786Z,17.90
2018-04-06T13:36:52.153Z,17.70
2018-04-06T13:39:18.443Z,17.80
2018-04-06T13:41:45.254Z,17.90
2018-04-06T13:44:12.280Z,18.00
2018-04-06T13:46:38.563Z,18.00
2018-04-06T13:49:06.054Z,18.00
2018-04-06T13:51:32.651Z,18.00
2018-04-06T13:54:00.216Z,18.40
2018-04-06T13:56:28.246Z,18.40
2018-04-06T13:58:54.574Z,18.40
2018-04-06T14:01:21.010Z,18.20
2018-04-06T14:03:48.186Z,18.20
2018-04-06T14:06:15.554Z,18.10
2018-04-06T14:08:42.974Z,18.20
2018-04-06T14:11:09.793Z,18.20
2018-04-06T14:13:37.353Z,17.80
2018-04-06T14:16:04.366Z,17.70
2018-04-06T14:18:31.151Z,17.80
2018-04-06T14:20:58.207Z,17.90
2018-04-06T14:23:25.218Z,18.10
2018-04-06T14:25:51.502Z,18.20
2018-04-06T14:28:17.753Z,18.30
2018-04-06T14:30:44.679Z,18.90
2018-04-06T14:33:12.550Z,18.90
2018-04-06T14:35:39.741Z,18.90
2018-04-06T14:38:06.550Z,18.60
2018-04-06T14:40:33.545Z,18.00
2018-04-06T14:43:00.770Z,18.00
2018-04-06T14:45:27.303Z,17.90
2018-04-06T14:47:54.306Z,18.00
2018-04-06T14:50:20.667Z,17.90
2018-04-06T14:52:48.046Z,18.10
2018-04-06T14:55:15.043Z,17.90
2018-04-06T14:57:41.334Z,17.90
2018-04-06T15:00:08.386Z,17.80
2018-04-06T15:02:35.486Z,17.80
2018-04-06T15:05:02.294Z,17.80
2018-04-06T15:07:29.858Z,18.00
2018-04-06T15:09:57.370Z,18.10
2018-04-06T15:12:23.703Z,18.10
2018-04-06T15:14:50.502Z,18.20
2018-04-06T15:17:17.507Z,18.40
2018-04-06T15:19:43.834Z,18.40
2018-04-06T15:22:10.143Z,18.40
2018-04-06T15:24:37.105Z,18.40
2018-04-06T15:27:03.838Z,18.20
2018-04-06T15:29:30.094Z,18.10
2018-04-06T15:31:56.364Z,18.10
2018-04-06T15:34:23.118Z,18.10
2018-04-06T15:36:49.458Z,18.10
2018-04-06T15:39:15.721Z,18.00
2018-04-06T15:41:42.260Z,18.00
2018-04-06T15:44:08.535Z,17.80
2018-04-06T15:46:34.878Z,18.00
2018-04-06T15:49:01.184Z,18.20
2018-04-06T15:51:27.470Z,18.60
2018-04-06T15:53:54.654Z,18.90
2018-04-06T15:56:22.088Z,19.50
2018-04-06T15:58:49.105Z,19.60
2018-04-06T16:01:15.386Z,19.60
2018-04-06T16:03:42.932Z,19.10
2018-04-06T16:06:09.706Z,19.10
2018-04-06T16:08:37.274Z,18.10
2018-04-06T16:11:04.710Z,17.70
2018-04-06T16:13:31.584Z,17.70
2018-04-06T16:15:59.062Z,17.00
2018-04-06T16:18:25.394Z,17.00
2018-04-06T16:20:51.654Z,16.70
2018-04-06T16:23:17.926Z,16.50
2018-04-06T16:25:44.942Z,16.30
2018-04-06T16:28:11.344Z,16.20
2018-04-06T16:30:38.593Z,16.00
2018-04-06T16:33:07.094Z,15.90
2018-04-06T16:35:33.353Z,15.90
2018-04-06T16:37:59.630Z,15.80
2018-04-06T16:40:26.198Z,15.70
2018-04-06T16:42:53.209Z,15.50
2018-04-06T16:45:19.603Z,15.50
2018-04-06T16:47:46.153Z,15.40
2018-04-06T16:50:12.409Z,15.30
2018-04-06T16:52:40.245Z,15.20
2018-04-06T16:55:08.247Z,15.10
2018-04-06T16:57:34.496Z,15.00
2018-04-06T17:00:00.770Z,14.80
2018-04-06T17:02:28.382Z,14.60
2018-04-06T17:04:55.086Z,14.60
2018-04-06T17:07:22.624Z,14.40
2018-04-06T17:09:49.793Z,14.30
2018-04-06T17:12:16.480Z,14.10
2018-04-06T17:14:42.784Z,14.00
2018-04-06T17:17:10.364Z,13.80
2018-04-06T17:19:36.664Z,13.70
2018-04-06T17:22:02.937Z,13.70
2018-04-06T17:24:29.219Z,13.50
2018-04-06T17:26:55.473Z,13.40
2018-04-06T17:29:21.896Z,13.40
2018-04-06T17:31:48.479Z,13.30
2018-04-06T17:34:15.917Z,13.10
2018-04-06T17:36:42.273Z,13.10
2018-04-06T17:39:09.257Z,13.00
2018-04-06T17:41:35.757Z,12.90
2018-04-06T17:44:02.775Z,12.70
2018-04-06T17:46:29.129Z,12.70
2018-04-06T17:48:55.698Z,12.60
2018-04-06T17:51:22.677Z,12.40
2018-04-06T17:53:49.560Z,12.30
2018-04-06T17:56:15.808Z,12.30
2018-04-06T17:58:42.160Z,12.10
2018-04-06T18:01:09.175Z,11.90
2018-04-06T18:03:35.865Z,11.80
2018-04-06T18:06:03.361Z,11.60
2018-04-06T18:08:30.177Z,11.60
2018-04-06T18:10:56.802Z,11.40
2018-04-06T18:13:23.665Z,11.30
2018-04-06T18:15:51.425Z,11.00
2018-04-06T18:18:19.029Z,10.90
2018-04-06T18:20:45.336Z,10.90
2018-04-06T18:23:12.342Z,10.80
2018-04-06T18:25:38.934Z,10.70
2018-04-06T18:28:05.973Z,10.60
2018-04-06T18:30:33.094Z,10.40
2018-04-06T18:32:59.905Z,10.50
2018-04-06T18:35:26.174Z,10.40
2018-04-06T18:37:52.813Z,10.30
2018-04-06T18:40:19.105Z,10.20
2018-04-06T18:42:46.258Z,10.00
2018-04-06T18:45:13.289Z,9.90
2018-04-06T18:47:39.565Z,9.90
2018-04-06T18:50:05.923Z,9.70
2018-04-06T18:52:33.293Z,9.70
2018-04-06T18:54:59.588Z,9.60
2018-04-06T18:57:26.510Z,9.60
2018-04-06T18:59:53.526Z,9.50
2018-04-06T19:02:20.211Z,9.40
2018-04-06T19:04:48.609Z,9.30
2018-04-06T19:07:16.152Z,9.20
2018-04-06T19:09:42.974Z,9.20
2018-04-06T19:12:09.342Z,9.10
2018-04-06T19:14:36.358Z,9.00
2018-04-06T19:17:03.025Z,9.00
2018-04-06T19:19:29.880Z,8.90
2018-04-06T19:21:56.181Z,8.90
2018-04-06T19:24:22.499Z,8.80
2018-04-06T19:26:48.840Z,8.70
2018-04-06T19:29:15.135Z,8.70
2018-04-06T19:31:42.243Z,8.60
2018-04-06T19:34:08.918Z,8.60
2018-04-06T19:36:36.282Z,8.50
2018-04-06T19:39:03.388Z,8.40
2018-04-06T19:41:29.659Z,8.40
2018-04-06T19:43:56.483Z,8.30
2018-04-06T19:46:22.819Z,8.20
2018-04-06T19:48:49.128Z,8.20
2018-04-06T19:51:16.355Z,8.10
2018-04-06T19:53:43.822Z,8.00
2018-04-06T19:56:10.868Z,7.90
2018-04-06T19:58:38.464Z,7.80
2018-04-06T20:01:05.151Z,7.90
2018-04-06T20:03:31.955Z,7.90
2018-04-06T20:05:58.614Z,7.80
2018-04-06T20:08:25.521Z,7.70
2018-04-06T20:10:53.730Z,7.60
2018-04-06T20:13:19.993Z,7.60
2018-04-06T20:15:47.048Z,7.50
2018-04-06T20:18:14.158Z,7.50
2018-04-06T20:20:40.432Z,7.40
2018-04-06T20:23:06.705Z,7.40
2018-04-06T20:25:33.001Z,7.30
2018-04-06T20:27:59.271Z,7.30
2018-04-06T20:30:25.626Z,7.20
2018-04-06T20:32:52.710Z,7.20
2018-04-06T20:35:19.540Z,7.20
2018-04-06T20:37:46.484Z,7.20
2018-04-06T20:40:12.744Z,7.10
2018-04-06T20:42:39.497Z,7.10
2018-04-06T20:45:05.758Z,6.90
2018-04-06T20:47:32.045Z,6.80
2018-04-06T20:49:59.185Z,6.90
2018-04-06T20:52:26.197Z,6.80
2018-04-06T20:54:53.710Z,6.70
2018-04-06T20:57:19.967Z,6.80
2018-04-06T20:59:46.245Z,6.70
2018-04-06T21:02:13.024Z,6.60
2018-04-06T21:04:39.874Z,6.60
2018-04-06T21:07:06.609Z,6.50
2018-04-06T21:09:34.075Z,6.50
2018-04-06T21:12:01.054Z,6.40
2018-04-06T21:14:27.343Z,6.40
2018-04-06T21:16:54.856Z,6.40
2018-04-06T21:19:21.881Z,6.40
2018-04-06T21:21:48.169Z,6.40
2018-04-06T21:24:14.441Z,6.30
2018-04-06T21:26:41.706Z,6.30
2018-04-06T21:29:08.617Z,6.20
2018-04-06T21:31:34.909Z,6.20
2018-04-06T21:34:01.631Z,6.20
2018-04-06T21:36:28.633Z,6.10
2018-04-06T21:38:54.926Z,6.00
2018-04-06T21:41:22.282Z,6.00
2018-04-06T21:43:49.273Z,6.00
2018-04-06T21:46:15.671Z,6.00
2018-04-06T21:48:42.925Z,5.90
2018-04-06T21:51:09.917Z,5.90
2018-04-06T21:53:36.926Z,5.90
2018-04-06T21:56:03.961Z,5.80
2018-04-06T21:58:31.234Z,5.80
2018-04-06T22:00:58.298Z,5.70
2018-04-06T22:03:25.894Z,5.60
2018-04-06T22:05:52.573Z,5.60
2018-04-06T22:08:19.465Z,5.60
2018-04-06T22:10:46.196Z,5.60
2018-04-06T22:13:13.225Z,5.60
2018-04-06T22:15:40.004Z,5.50
2018-04-06T22:18:06.871Z,5.60
2018-04-06T22:20:33.137Z,5.50
2018-04-06T22:22:59.417Z,5.50
2018-04-06T22:25:26.438Z,5.40
2018-04-06T22:27:53.309Z,5.40
2018-04-06T22:30:20.726Z,5.40
2018-04-06T22:32:46.993Z,5.30
2018-04-06T22:35:13.857Z,5.40
2018-04-06T22:37:41.528Z,5.30
2018-04-06T22:40:08.558Z,5.30
2018-04-06T22:42:34.849Z,5.30
2018-04-06T22:45:01.159Z,5.20
2018-04-06T22:47:27.433Z,5.20
2018-04-06T22:49:54.118Z,5.10
2018-04-06T22:52:21.697Z,5.10
2018-04-06T22:54:49.113Z,5.10
2018-04-06T22:57:16.002Z,5.10
2018-04-06T22:59:43.008Z,5.10
2018-04-06T23:02:09.270Z,5.10
2018-04-06T23:04:35.965Z,5.00
2018-04-06T23:07:02.305Z,5.00
2018-04-06T23:09:29.127Z,5.00
2018-04-06T23:11:56.113Z,4.90
2018-04-06T23:14:22.353Z,4.90
2018-04-06T23:16:49.146Z,4.90
2018-04-06T23:19:16.465Z,4.90
2018-04-06T23:21:42.719Z,4.90
2018-04-06T23:24:08.965Z,4.90
2018-04-06T23:26:35.531Z,4.80
2018-04-06T23:29:02.576Z,4.80
2018-04-06T23:31:29.587Z,4.80
2018-04-06T23:33:56.449Z,4.70
2018-04-06T23:36:22.703Z,4.70
2018-04-06T23:38:49.705Z,4.80
2018-04-06T23:41:15.978Z,4.70
2018-04-06T23:43:43.730Z,4.70
2018-04-06T23:46:10.098Z,4.70
2018-04-06T23:48:37.632Z,4.60
2018-04-06T23:51:04.113Z,4.60
2018-04-06T23:53:31.275Z,4.60
2018-04-06T23:55:57.545Z,4.60
2018-04-06T23:58:23.793Z,4.50
